X  Zamknij Lotniskowe dane METAR     LKTB Brno-Tuřany Airport
Temperatura
11°C Temperatura
6°C Punkt rosy
72% Wilgotność



Wiatr
13 KM/H
8 MPH
4 M/S
7 KTS



110°
ESE
Warunki bieżące

Czyste Czyste
Ciśnienie 1010.92 (hPa) - 29.85 (inHg)
Widoczność 6.2 (mil) - 10 (km)
Lotnisko
Kod lotniska LKTB

Położenie: Brno-Tuřany Airport
Odległość: 25 (km)

Metar:
LKTB 202130Z 11007KT CAVOK 11/06 Q1011 NOSIG

Czas: 20-10-2021 23:30 CEST